Terminal Aerodrome Forecast
Issued by NWS Mobile, AL

Home | Current Version | Previous Version | Text Only | Print | Product List | Glossary On
Versions: 1 2 3 4 5 6 7 8 9 10 11 12 13 14 15 16 17 18 19 20 21 22 23 24 25 26 27 28
130
FTUS44 KMOB 171749 AAA
TAFMOB
TAF AMD
KMOB 171749Z 1718/1818 14010KT 4SM TSRA BKN015CB OVC024
     FM171830 16014KT 6SM BR VCTS BKN015CB OVC025
     FM172300 16012KT 6SM BR OVC009
     FM180300 18006KT 2SM BR OVC007
     FM181200 26003KT 2SM BR VCSH OVC004=

USA.gov is the U.S. government's official web portal to all federal, state and local government web resources and services.